createdAt,value
2017-12-13T00:00:50.095Z,67.90
2017-12-13T00:03:18.217Z,67.80
2017-12-13T00:05:47.103Z,67.80
2017-12-13T00:08:15.999Z,67.60
2017-12-13T00:10:44.890Z,67.60
2017-12-13T00:13:13.799Z,67.90
2017-12-13T00:15:41.910Z,67.30
2017-12-13T00:18:10.019Z,67.30
2017-12-13T00:20:38.909Z,67.40
2017-12-13T00:23:07.783Z,67.50
2017-12-13T00:25:36.000Z,67.50
2017-12-13T00:28:04.870Z,67.60
2017-12-13T00:30:33.767Z,67.90
2017-12-13T00:33:01.880Z,67.80
2017-12-13T00:35:30.004Z,67.70
2017-12-13T00:37:58.896Z,68.00
2017-12-13T00:40:27.763Z,68.10
2017-12-13T00:42:56.671Z,68.20
2017-12-13T00:45:25.561Z,68.30
2017-12-13T00:47:53.706Z,68.30
2017-12-13T00:50:21.811Z,68.40
2017-12-13T00:52:50.008Z,68.60
2017-12-13T00:55:18.099Z,68.40
2017-12-13T00:57:46.227Z,68.40
2017-12-13T01:00:14.377Z,68.40
2017-12-13T01:02:42.481Z,68.30
2017-12-13T01:05:10.615Z,68.30
2017-12-13T01:07:38.747Z,68.30
2017-12-13T01:10:06.901Z,68.70
2017-12-13T01:12:35.075Z,68.30
2017-12-13T01:15:03.958Z,68.50
2017-12-13T01:17:32.078Z,68.50
2017-12-13T01:20:00.199Z,68.50
2017-12-13T01:22:28.342Z,68.60
2017-12-13T01:24:56.454Z,68.70
2017-12-13T01:27:24.586Z,68.70
2017-12-13T01:29:52.719Z,68.70
2017-12-13T01:32:20.838Z,69.30
2017-12-13T01:34:49.761Z,69.00
2017-12-13T01:37:17.867Z,69.00
2017-12-13T01:39:45.991Z,69.00
2017-12-13T01:42:14.118Z,69.10
2017-12-13T01:44:43.751Z,69.40
2017-12-13T01:47:12.649Z,69.50
2017-12-13T01:49:41.548Z,69.80
2017-12-13T01:52:09.684Z,69.70
2017-12-13T01:54:37.803Z,69.70
2017-12-13T01:57:05.933Z,69.90
2017-12-13T01:59:34.056Z,69.90
2017-12-13T02:02:02.202Z,69.90
2017-12-13T02:04:31.088Z,69.90
2017-12-13T02:06:59.961Z,70.00
2017-12-13T02:09:28.098Z,70.00
2017-12-13T02:11:56.220Z,70.00
2017-12-13T02:14:25.130Z,70.10
2017-12-13T02:16:53.253Z,70.00
2017-12-13T02:19:21.380Z,70.10
2017-12-13T02:21:49.502Z,70.10
2017-12-13T02:24:17.641Z,70.20
2017-12-13T02:26:45.777Z,70.20
2017-12-13T02:29:14.641Z,70.40
2017-12-13T02:31:42.778Z,70.20
2017-12-13T02:34:10.932Z,70.20
2017-12-13T02:36:39.044Z,70.20
2017-12-13T02:39:07.178Z,70.30
2017-12-13T02:41:35.362Z,70.20
2017-12-13T02:44:03.458Z,70.20
2017-12-13T02:46:31.599Z,70.10
2017-12-13T02:48:59.766Z,70.20
2017-12-13T02:51:27.857Z,70.20
2017-12-13T02:53:55.982Z,70.10
2017-12-13T02:56:24.882Z,70.00
2017-12-13T02:58:53.777Z,70.10
2017-12-13T03:01:21.900Z,70.10
2017-12-13T03:03:50.044Z,70.00
2017-12-13T03:06:18.160Z,70.00
2017-12-13T03:08:46.290Z,70.00
2017-12-13T03:11:14.410Z,70.10
2017-12-13T03:13:43.320Z,70.10
2017-12-13T03:16:11.439Z,70.10
2017-12-13T03:18:39.562Z,70.10
2017-12-13T03:21:07.691Z,70.10
2017-12-13T03:23:35.811Z,70.00
2017-12-13T03:26:03.933Z,70.10
2017-12-13T03:28:32.054Z,70.00
2017-12-13T03:31:00.202Z,70.00
2017-12-13T03:33:28.314Z,70.10
2017-12-13T03:35:56.426Z,70.00
2017-12-13T03:38:24.562Z,69.90
2017-12-13T03:40:52.714Z,69.70
2017-12-13T03:43:20.842Z,69.70
2017-12-13T03:45:48.959Z,69.70
2017-12-13T03:48:17.116Z,69.80
2017-12-13T03:50:45.996Z,69.80
2017-12-13T03:53:14.116Z,69.80
2017-12-13T03:55:42.248Z,69.80
2017-12-13T03:58:11.147Z,69.70
2017-12-13T04:00:40.049Z,69.60
2017-12-13T04:03:08.163Z,69.60
2017-12-13T04:05:37.814Z,69.70
2017-12-13T04:08:06.701Z,69.70
2017-12-13T04:10:35.593Z,69.60
2017-12-13T04:13:04.490Z,69.60
2017-12-13T04:15:32.632Z,69.50
2017-12-13T04:18:00.752Z,69.50
2017-12-13T04:20:28.877Z,69.50
2017-12-13T04:22:56.992Z,69.50
2017-12-13T04:25:25.106Z,69.50
2017-12-13T04:27:53.254Z,69.60
2017-12-13T04:30:21.366Z,69.70
2017-12-13T04:32:49.499Z,69.60
2017-12-13T04:35:17.625Z,69.50
2017-12-13T04:37:46.521Z,69.10
2017-12-13T04:40:15.420Z,68.70
2017-12-13T04:42:43.540Z,68.70
2017-12-13T04:45:11.683Z,68.50
2017-12-13T04:47:39.797Z,68.10
2017-12-13T04:50:07.933Z,68.00
2017-12-13T04:52:36.043Z,67.80
2017-12-13T04:55:04.170Z,67.80
2017-12-13T04:57:32.303Z,67.80
2017-12-13T05:00:01.184Z,67.70
2017-12-13T05:02:29.314Z,67.70
2017-12-13T05:04:57.439Z,67.10
2017-12-13T05:07:25.582Z,68.00
2017-12-13T05:09:53.702Z,67.70
2017-12-13T05:12:21.828Z,67.60
2017-12-13T05:14:51.484Z,67.70
2017-12-13T05:17:19.610Z,67.30
2017-12-13T05:19:47.751Z,67.20
2017-12-13T05:22:15.878Z,67.10
2017-12-13T05:24:44.805Z,66.70
2017-12-13T05:27:13.662Z,66.50
2017-12-13T05:29:42.575Z,66.30
2017-12-13T05:32:10.706Z,66.30
2017-12-13T05:34:38.851Z,66.10
2017-12-13T05:37:06.970Z,65.90
2017-12-13T05:39:35.848Z,65.70
2017-12-13T05:42:04.747Z,65.70
2017-12-13T05:44:33.627Z,65.10
2017-12-13T05:47:02.560Z,65.00
2017-12-13T05:49:31.414Z,65.00
2017-12-13T05:52:00.308Z,64.80
2017-12-13T05:54:29.194Z,64.40
2017-12-13T05:56:58.074Z,64.60
2017-12-13T05:59:26.209Z,64.60
2017-12-13T06:01:54.322Z,64.70
2017-12-13T06:04:23.253Z,64.50
2017-12-13T06:06:52.119Z,64.00
2017-12-13T06:09:21.002Z,64.10
2017-12-13T06:11:49.882Z,64.30
2017-12-13T06:14:18.782Z,64.20
2017-12-13T06:16:47.662Z,64.20
2017-12-13T06:19:16.590Z,63.90
2017-12-13T06:21:44.722Z,64.40
2017-12-13T06:24:12.839Z,64.50
2017-12-13T06:26:40.963Z,64.70
2017-12-13T06:29:09.107Z,64.60
2017-12-13T06:31:37.253Z,64.70
2017-12-13T06:34:05.356Z,64.90
2017-12-13T06:36:33.474Z,65.00
2017-12-13T06:39:02.366Z,65.30
2017-12-13T06:41:30.480Z,65.40
2017-12-13T06:43:58.615Z,65.50
2017-12-13T06:46:26.813Z,65.60
2017-12-13T06:48:54.936Z,65.80
2017-12-13T06:51:23.059Z,66.00
2017-12-13T06:53:51.207Z,66.50
2017-12-13T06:56:19.338Z,66.20
2017-12-13T06:58:47.449Z,66.30
2017-12-13T07:01:15.593Z,66.50
2017-12-13T07:03:43.705Z,66.60
2017-12-13T07:06:11.835Z,66.70
2017-12-13T07:08:39.961Z,66.90
2017-12-13T07:11:08.093Z,66.60
2017-12-13T07:13:37.002Z,67.10
2017-12-13T07:16:05.131Z,67.00
2017-12-13T07:18:33.249Z,67.10
2017-12-13T07:21:01.375Z,67.10
2017-12-13T07:23:29.508Z,67.20
2017-12-13T07:25:57.624Z,67.20
2017-12-13T07:28:25.766Z,67.60
2017-12-13T07:30:53.884Z,67.70
2017-12-13T07:33:22.023Z,67.90
2017-12-13T07:35:50.162Z,68.40
2017-12-13T07:38:18.277Z,68.50
2017-12-13T07:40:46.424Z,68.70
2017-12-13T07:43:14.534Z,68.70
2017-12-13T07:45:42.689Z,68.60
2017-12-13T07:48:10.867Z,68.60
2017-12-13T07:50:39.753Z,68.50
2017-12-13T07:53:07.902Z,68.50
2017-12-13T07:55:36.027Z,69.10
2017-12-13T07:58:04.160Z,68.40
2017-12-13T08:00:32.284Z,68.30
2017-12-13T08:03:01.206Z,68.20
2017-12-13T08:05:29.319Z,68.10
2017-12-13T08:07:57.436Z,68.00
2017-12-13T08:10:25.590Z,67.90
2017-12-13T08:12:54.476Z,67.90
2017-12-13T08:15:23.377Z,67.90
2017-12-13T08:17:51.516Z,67.90
2017-12-13T08:20:20.409Z,67.60
2017-12-13T08:22:48.579Z,67.60
2017-12-13T08:25:16.683Z,67.60
2017-12-13T08:27:44.819Z,67.40
2017-12-13T08:30:12.957Z,67.20
2017-12-13T08:32:41.079Z,67.00
2017-12-13T08:35:09.972Z,67.40
2017-12-13T08:37:38.118Z,67.00
2017-12-13T08:40:06.248Z,67.20
2017-12-13T08:42:36.060Z,67.00
2017-12-13T08:45:05.035Z,67.00
2017-12-13T08:47:33.921Z,67.00
2017-12-13T08:50:02.852Z,66.90
2017-12-13T08:52:30.981Z,67.00
2017-12-13T08:54:59.877Z,67.50
2017-12-13T08:57:28.015Z,66.90
2017-12-13T08:59:56.141Z,67.00
2017-12-13T09:02:24.302Z,66.80
2017-12-13T09:04:52.449Z,66.90
2017-12-13T09:07:21.366Z,66.80
2017-12-13T09:09:50.245Z,66.60
2017-12-13T09:12:19.139Z,66.10
2017-12-13T09:14:48.038Z,66.10
2017-12-13T09:17:16.200Z,66.10
2017-12-13T09:19:45.132Z,64.50
2017-12-13T09:22:13.236Z,64.50
2017-12-13T09:24:41.361Z,64.00
2017-12-13T09:27:09.484Z,64.20
2017-12-13T09:29:38.384Z,62.70
2017-12-13T09:32:07.263Z,61.50
2017-12-13T09:34:35.404Z,61.60
2017-12-13T09:37:03.530Z,61.90
2017-12-13T09:39:32.397Z,61.30
2017-12-13T09:42:01.309Z,60.70
2017-12-13T09:44:30.183Z,60.80
2017-12-13T09:46:58.332Z,61.30
2017-12-13T09:49:26.454Z,60.60
2017-12-13T09:51:54.603Z,59.50
2017-12-13T09:54:22.698Z,59.50
2017-12-13T09:56:50.832Z,59.10
2017-12-13T09:59:18.953Z,58.00
2017-12-13T10:01:47.063Z,58.20
2017-12-13T10:04:15.202Z,57.70
2017-12-13T10:06:43.321Z,56.90
2017-12-13T10:09:11.442Z,57.10
2017-12-13T10:11:39.566Z,55.60
2017-12-13T10:14:07.698Z,55.90
2017-12-13T10:16:35.827Z,55.30
2017-12-13T10:19:04.711Z,55.60
2017-12-13T10:21:33.594Z,54.40
2017-12-13T10:24:02.484Z,54.30
2017-12-13T10:26:30.623Z,54.30
2017-12-13T10:28:58.783Z,55.20
2017-12-13T10:31:27.655Z,52.80
2017-12-13T10:33:55.768Z,52.80
2017-12-13T10:36:23.910Z,51.70
2017-12-13T10:38:52.052Z,51.10
2017-12-13T10:41:21.120Z,51.10
2017-12-13T10:43:50.390Z,49.10
2017-12-13T10:46:18.502Z,49.60
2017-12-13T10:48:47.394Z,50.10
2017-12-13T10:51:16.294Z,49.70
2017-12-13T10:53:45.185Z,49.00
2017-12-13T10:56:14.066Z,48.60
2017-12-13T10:58:42.944Z,47.10
2017-12-13T11:01:11.850Z,46.30
2017-12-13T11:03:40.737Z,45.90
2017-12-13T11:06:09.639Z,45.50
2017-12-13T11:08:38.517Z,44.80
2017-12-13T11:11:07.423Z,44.40
2017-12-13T11:13:35.529Z,44.20
2017-12-13T11:16:03.653Z,41.80
2017-12-13T11:18:32.554Z,41.00
2017-12-13T11:21:00.658Z,41.00
2017-12-13T11:23:28.791Z,37.50
2017-12-13T11:25:57.685Z,37.40
2017-12-13T11:28:26.578Z,37.50
2017-12-13T11:30:55.461Z,36.90
2017-12-13T11:33:23.609Z,36.90
2017-12-13T11:35:51.739Z,35.40
2017-12-13T11:38:19.904Z,34.50
2017-12-13T11:40:48.026Z,33.10
2017-12-13T11:43:18.541Z,34.30
2017-12-13T11:45:46.937Z,34.00
2017-12-13T11:48:15.010Z,33.40
2017-12-13T11:50:43.923Z,30.90
2017-12-13T11:53:12.052Z,30.80
2017-12-13T11:55:40.175Z,29.70
2017-12-13T11:58:10.384Z,29.00
2017-12-13T12:00:38.790Z,28.20
2017-12-13T12:03:06.932Z,29.10
2017-12-13T12:05:35.812Z,26.70
2017-12-13T12:08:04.721Z,27.30
2017-12-13T12:10:32.912Z,27.30
2017-12-13T12:13:01.020Z,26.90
2017-12-13T12:15:29.136Z,27.00
2017-12-13T12:18:00.921Z,28.80
2017-12-13T12:20:29.010Z,29.70
2017-12-13T12:22:57.968Z,26.40
2017-12-13T12:25:26.106Z,26.40
2017-12-13T12:27:55.002Z,26.70
2017-12-13T12:30:23.899Z,28.50
2017-12-13T12:32:52.030Z,28.50
2017-12-13T12:35:20.185Z,29.40
2017-12-13T12:37:48.298Z,28.80
2017-12-13T12:40:17.187Z,28.90
2017-12-13T12:42:45.328Z,28.90
2017-12-13T12:45:13.918Z,29.20
2017-12-13T12:47:42.058Z,29.90
2017-12-13T12:50:10.171Z,29.60
2017-12-13T12:52:38.336Z,29.20
2017-12-13T12:55:06.462Z,29.80
2017-12-13T12:57:34.614Z,29.60
2017-12-13T13:00:03.518Z,29.50
2017-12-13T13:02:32.323Z,29.50
2017-12-13T13:05:00.435Z,30.30
2017-12-13T13:07:28.578Z,30.20
2017-12-13T13:09:56.721Z,29.00
2017-12-13T13:12:24.851Z,29.40
2017-12-13T13:14:52.979Z,30.10
2017-12-13T13:17:21.111Z,29.30
2017-12-13T13:19:49.253Z,30.40
2017-12-13T13:22:17.374Z,29.80
2017-12-13T13:24:46.252Z,30.30
2017-12-13T13:27:15.269Z,29.00
2017-12-13T13:29:44.130Z,29.80
2017-12-13T13:32:13.046Z,29.60
2017-12-13T13:34:41.926Z,29.80
2017-12-13T13:37:10.857Z,30.90
2017-12-13T13:39:39.012Z,30.90
2017-12-13T13:42:07.182Z,32.00
2017-12-13T13:44:36.072Z,32.80
2017-12-13T13:47:04.934Z,33.60
2017-12-13T13:49:33.849Z,34.50
2017-12-13T13:52:02.032Z,34.50
2017-12-13T13:54:30.916Z,36.60
2017-12-13T13:56:59.790Z,37.30
2017-12-13T13:59:28.666Z,37.50
2017-12-13T14:01:57.572Z,38.80
2017-12-13T14:04:26.816Z,39.00
2017-12-13T14:06:54.949Z,39.50
2017-12-13T14:09:23.077Z,39.70
2017-12-13T14:11:51.220Z,39.70
2017-12-13T14:14:19.334Z,39.50
2017-12-13T14:16:48.224Z,40.10
2017-12-13T14:19:17.124Z,41.10
2017-12-13T14:21:46.026Z,41.70
2017-12-13T14:24:14.136Z,41.70
2017-12-13T14:26:42.257Z,41.50
2017-12-13T14:29:11.163Z,43.00
2017-12-13T14:31:39.281Z,43.00
2017-12-13T14:34:07.395Z,42.90
2017-12-13T14:36:36.311Z,44.90
2017-12-13T14:39:04.440Z,44.90
2017-12-13T14:41:32.572Z,46.40
2017-12-13T14:44:00.730Z,46.90
2017-12-13T14:46:28.862Z,47.20
2017-12-13T14:48:57.798Z,48.00
2017-12-13T14:51:25.921Z,47.90
2017-12-13T14:53:54.815Z,49.40
2017-12-13T14:56:23.746Z,49.10
2017-12-13T14:58:51.877Z,49.10
2017-12-13T15:01:19.991Z,49.60
2017-12-13T15:03:48.119Z,50.20
2017-12-13T15:06:16.257Z,50.20
2017-12-13T15:08:44.390Z,51.00
2017-12-13T15:11:12.523Z,51.30
2017-12-13T15:13:40.651Z,51.50
2017-12-13T15:16:08.776Z,51.20
2017-12-13T15:18:36.919Z,52.00
2017-12-13T15:21:05.053Z,52.90
2017-12-13T15:23:33.176Z,52.60
2017-12-13T15:26:01.301Z,53.00
2017-12-13T15:28:29.448Z,54.10
2017-12-13T15:30:58.327Z,55.20
2017-12-13T15:33:26.502Z,55.10
2017-12-13T15:35:54.622Z,55.10
2017-12-13T15:38:22.769Z,55.60
2017-12-13T15:40:51.639Z,55.60
2017-12-13T15:43:20.576Z,55.70
2017-12-13T15:45:48.682Z,55.60
2017-12-13T15:48:16.798Z,56.10
2017-12-13T15:50:44.933Z,56.00
2017-12-13T15:53:24.073Z,57.00
2017-12-13T15:55:52.206Z,57.20
2017-12-13T15:58:20.336Z,57.10
2017-12-13T16:00:48.488Z,57.20
2017-12-13T16:03:16.629Z,57.20
2017-12-13T16:05:59.219Z,57.40
2017-12-13T16:08:27.846Z,57.50
2017-12-13T16:10:56.777Z,57.60
2017-12-13T16:13:25.685Z,57.70
2017-12-13T16:36:34.531Z,59.00
2017-12-13T16:39:02.718Z,59.40
2017-12-13T16:41:30.834Z,59.30
2017-12-13T16:43:58.973Z,59.40
2017-12-13T16:46:27.127Z,59.30
2017-12-13T16:48:55.272Z,59.20
2017-12-13T16:51:23.391Z,59.50
2017-12-13T16:53:51.501Z,59.60
2017-12-13T16:56:20.402Z,59.50
2017-12-13T16:58:49.311Z,59.40
2017-12-13T17:01:17.455Z,59.40
2017-12-13T17:03:45.625Z,59.30
2017-12-13T17:06:13.770Z,59.70
2017-12-13T17:08:41.929Z,59.10
2017-12-13T17:11:10.055Z,59.20
2017-12-13T17:13:38.978Z,58.90
2017-12-13T17:16:07.072Z,58.90
2017-12-13T17:18:35.237Z,58.90
2017-12-13T17:21:03.370Z,58.30
2017-12-13T17:23:31.481Z,58.20
2017-12-13T17:26:00.305Z,58.30
2017-12-13T17:28:36.516Z,58.70
2017-12-13T17:31:04.637Z,58.90
2017-12-13T17:33:33.519Z,58.40
2017-12-13T17:36:01.648Z,58.60
2017-12-13T17:38:29.818Z,58.50
2017-12-13T17:40:58.822Z,57.60
2017-12-13T17:43:26.940Z,57.80
2017-12-13T17:45:55.846Z,57.40
2017-12-13T17:48:24.743Z,57.00
2017-12-13T17:50:52.900Z,57.00
2017-12-13T17:53:21.794Z,57.00
2017-12-13T17:55:50.690Z,56.60
2017-12-13T17:58:19.575Z,56.50
2017-12-13T18:00:48.475Z,56.30
2017-12-13T18:03:16.615Z,56.30
2017-12-13T18:05:44.741Z,56.00
2017-12-13T18:08:12.878Z,55.90
2017-12-13T18:10:41.766Z,55.70
2017-12-13T18:13:10.758Z,55.40
2017-12-13T18:15:39.715Z,54.70
2017-12-13T18:18:07.880Z,54.60
2017-12-13T18:20:36.005Z,53.80
2017-12-13T18:23:04.160Z,53.70
2017-12-13T18:25:33.072Z,53.10
2017-12-13T18:28:01.233Z,53.10
2017-12-13T18:30:30.166Z,51.70
2017-12-13T18:32:58.311Z,51.70
2017-12-13T18:35:26.440Z,51.70
2017-12-13T18:37:54.602Z,51.30
2017-12-13T18:40:22.744Z,51.60
2017-12-13T18:42:50.881Z,50.80
2017-12-13T18:45:20.925Z,50.60
2017-12-13T18:47:49.083Z,50.60
2017-12-13T18:50:17.178Z,50.70
2017-12-13T18:52:45.307Z,50.30
2017-12-13T18:55:14.205Z,50.80
2017-12-13T18:57:43.093Z,51.60
2017-12-13T19:00:13.412Z,52.30
2017-12-13T19:02:42.305Z,53.90
2017-12-13T19:05:10.421Z,53.60
2017-12-13T19:07:38.554Z,53.40
2017-12-13T19:10:07.433Z,55.30
2017-12-13T19:12:36.386Z,55.60
2017-12-13T19:15:05.278Z,55.70
2017-12-13T19:17:33.416Z,56.30
2017-12-13T19:20:01.536Z,56.40
2017-12-13T19:22:29.776Z,56.80
2017-12-13T19:24:57.889Z,57.20
2017-12-13T19:27:26.023Z,58.00
2017-12-13T19:29:54.177Z,58.50
2017-12-13T19:32:22.354Z,58.80
2017-12-13T19:34:51.284Z,58.90
2017-12-13T19:37:19.411Z,58.90
2017-12-13T19:39:47.533Z,58.90
2017-12-13T19:42:15.697Z,58.80
2017-12-13T19:44:43.806Z,58.50
2017-12-13T19:47:12.773Z,58.20
2017-12-13T19:49:41.177Z,58.10
2017-12-13T19:52:10.176Z,57.90
2017-12-13T19:54:39.106Z,58.00
2017-12-13T19:57:07.286Z,57.90
2017-12-13T19:59:35.439Z,57.80
2017-12-13T20:02:03.590Z,57.40
2017-12-13T20:04:32.532Z,57.20
2017-12-13T20:07:01.471Z,56.20
2017-12-13T20:09:30.405Z,55.20
2017-12-13T20:11:58.683Z,55.20
2017-12-13T20:14:27.626Z,54.00
2017-12-13T20:16:56.549Z,53.30
2017-12-13T20:19:25.081Z,53.30
2017-12-13T20:21:53.464Z,53.20
2017-12-13T20:24:22.436Z,52.10
2017-12-13T20:26:50.685Z,51.80
2017-12-13T20:29:19.014Z,52.00
2017-12-13T20:31:47.477Z,52.00
2017-12-13T20:34:16.097Z,51.90
2017-12-13T20:36:44.282Z,52.20
2017-12-13T20:39:12.523Z,50.50
2017-12-13T20:41:40.740Z,50.50
2017-12-13T20:44:08.935Z,50.50
2017-12-13T20:46:37.137Z,50.40
2017-12-13T20:49:05.423Z,50.30
2017-12-13T20:51:34.456Z,49.50
2017-12-13T20:54:02.681Z,49.50
2017-12-13T20:56:30.903Z,49.40
2017-12-13T20:59:01.193Z,49.40
2017-12-13T21:01:30.134Z,48.70
2017-12-13T21:03:58.308Z,48.70
2017-12-13T21:06:26.466Z,48.60
2017-12-13T21:08:54.864Z,48.70
2017-12-13T21:11:23.289Z,48.60
2017-12-13T21:13:51.457Z,47.90
2017-12-13T21:16:20.374Z,47.70
2017-12-13T21:18:48.603Z,47.70
2017-12-13T21:21:16.820Z,47.20
2017-12-13T21:23:45.759Z,47.30
2017-12-13T21:26:14.014Z,47.30
2017-12-13T21:28:42.275Z,47.20
2017-12-13T21:31:10.506Z,47.90
2017-12-13T21:33:39.426Z,47.60
2017-12-13T21:36:07.583Z,47.70
2017-12-13T21:38:36.494Z,48.50
2017-12-13T21:41:04.696Z,48.50
2017-12-13T21:43:33.055Z,48.90
2017-12-13T21:46:01.312Z,48.90
2017-12-13T21:48:29.519Z,49.00
2017-12-13T21:50:58.063Z,48.70
2017-12-13T21:53:27.100Z,49.20
2017-12-13T21:55:55.216Z,49.20
2017-12-13T21:58:23.352Z,49.50
2017-12-13T22:00:51.687Z,49.10
2017-12-13T22:03:19.835Z,49.50
2017-12-13T22:05:49.472Z,49.70
2017-12-13T22:08:17.619Z,49.70
2017-12-13T22:10:45.745Z,49.70
2017-12-13T22:13:13.888Z,49.60
2017-12-13T22:15:42.248Z,49.80
2017-12-13T22:18:11.208Z,49.50
2017-12-13T22:20:40.136Z,49.20
2017-12-13T22:23:08.264Z,49.20
2017-12-13T22:25:36.384Z,49.10
2017-12-13T22:28:04.528Z,50.80
2017-12-13T22:30:33.423Z,52.50
2017-12-13T22:33:02.452Z,53.10
2017-12-13T22:35:30.563Z,53.10
2017-12-13T22:37:58.691Z,53.60
2017-12-13T22:40:26.844Z,54.50
2017-12-13T22:42:55.733Z,55.60
2017-12-13T22:45:23.878Z,55.50
2017-12-13T22:47:52.075Z,56.90
2017-12-13T22:50:20.988Z,57.30
2017-12-13T22:52:49.109Z,57.30
2017-12-13T22:55:17.224Z,57.40
2017-12-13T22:57:45.434Z,58.00
2017-12-13T23:00:13.566Z,57.00
2017-12-13T23:02:41.711Z,57.10
2017-12-13T23:05:11.610Z,55.60
2017-12-13T23:07:39.755Z,55.60
2017-12-13T23:10:07.887Z,54.80
2017-12-13T23:12:35.995Z,54.70
2017-12-13T23:15:04.164Z,54.40
2017-12-13T23:17:32.316Z,54.90
2017-12-13T23:20:00.474Z,55.20
2017-12-13T23:22:28.606Z,55.80
2017-12-13T23:24:56.729Z,56.10
2017-12-13T23:27:24.852Z,55.70
2017-12-13T23:29:53.011Z,55.90
2017-12-13T23:32:21.127Z,56.20
2017-12-13T23:34:50.017Z,54.70
2017-12-13T23:37:18.929Z,54.70
2017-12-13T23:39:47.042Z,54.70
2017-12-13T23:42:15.156Z,54.50
2017-12-13T23:44:43.272Z,54.30
2017-12-13T23:47:11.412Z,55.20
2017-12-13T23:49:39.522Z,55.30
2017-12-13T23:52:07.678Z,54.90
2017-12-13T23:54:35.800Z,55.60
2017-12-13T23:57:03.919Z,56.40
2017-12-13T23:59:32.050Z,56.40
